Time;durP1;ratioP1;P1;durP2;ratioP2;P2;SDS_P1;SDS_P2;PMS_P1;PMS_P2;Temp;Humidity;BMP_temperature;BMP_pressure;BME280_temperature;BME280_humidity;BME280_pressure;Samples;Min_cycle;Max_cycle;Signal;HPM_P1;HPM_P2
2022/01/23 00:00:02;;;;;;;18.23;14.60;;;;;;;18.44;36.95;102306.66;5029670;28;20060;-76
2022/01/23 00:02:35;;;;;;;17.83;15.25;;;;;;;18.44;36.89;102301.31;5018031;28;20053;-76
2022/01/23 00:05:07;;;;;;;19.00;15.25;;;;;;;18.44;36.86;102306.66;5011494;28;20504;-76
2022/01/23 00:07:35;;;;;;;16.20;14.50;;;;;;;18.44;36.87;102315.56;5011523;28;20061;-76
2022/01/23 00:10:05;;;;;;;17.70;14.43;;;;;;;18.44;36.85;102318.25;5010218;28;20050;-76
2022/01/23 00:12:39;;;;;;;18.67;16.02;;;;;;;18.44;36.90;102322.75;5012492;28;20489;-76
2022/01/23 00:17:53;;;;;;;18.42;14.90;;;;;;;18.45;36.78;102335.19;5009846;28;20049;-76
2022/01/23 00:20:21;;;;;;;17.23;14.65;;;;;;;18.45;36.81;102329.84;5011119;28;20048;-76
2022/01/23 00:22:52;;;;;;;16.52;14.80;;;;;;;18.45;36.85;102319.09;5011578;28;20060;-77
2022/01/23 00:30:55;;;;;;;17.00;14.98;;;;;;;18.45;36.74;102325.34;5009542;28;20520;-76
2022/01/23 00:33:25;;;;;;;18.02;14.85;;;;;;;18.45;36.84;102330.69;5010949;28;20051;-76
2022/01/23 00:35:54;;;;;;;17.98;15.68;;;;;;;18.45;36.67;102336.06;5011799;28;20053;-76
2022/01/23 00:38:22;;;;;;;17.00;14.85;;;;;;;18.45;36.53;102329.84;5009267;28;20062;-76
2022/01/23 00:40:50;;;;;;;16.40;14.10;;;;;;;18.45;36.70;102325.34;5011197;28;20049;-77
2022/01/23 00:43:27;;;;;;;17.00;14.65;;;;;;;18.45;36.70;102337.88;5010053;28;20508;-78
2022/01/23 00:46:21;;;;;;;17.92;15.98;;;;;;;18.45;36.61;102340.56;5010962;28;20397;-77
2022/01/23 00:51:26;;;;;;;15.70;13.32;;;;;;;18.46;36.63;102334.22;5010865;28;20508;-77
2022/01/23 00:53:57;;;;;;;16.65;14.68;;;;;;;18.47;36.84;102344.91;5000184;28;20481;-76
2022/01/23 00:56:25;;;;;;;18.27;14.30;;;;;;;18.46;36.62;102339.59;5023802;28;20053;-76
2022/01/23 00:58:53;;;;;;;16.92;14.77;;;;;;;18.47;36.77;102346.69;5006314;28;20057;-76
2022/01/23 01:01:21;;;;;;;17.02;14.75;;;;;;;18.46;36.87;102348.50;5007320;28;20038;-75
2022/01/23 01:03:48;;;;;;;20.30;14.65;;;;;;;18.48;36.90;102351.13;5010524;28;20049;-78
2022/01/23 01:06:17;;;;;;;19.67;14.68;;;;;;;18.48;36.92;102340.38;5010492;28;20041;-78
2022/01/23 01:08:47;;;;;;;19.02;15.43;;;;;;;18.48;37.11;102341.25;4993288;28;20053;-78
2022/01/23 01:30:33;;;;;;;18.52;15.57;;;;;;;18.47;37.02;102334.16;5010412;28;20053;-77
2022/01/23 01:35:40;;;;;;;18.55;15.23;;;;;;;18.48;36.83;102335.03;5011156;28;20053;-77
2022/01/23 01:38:08;;;;;;;15.23;13.57;;;;;;;18.47;37.05;102323.44;5047142;28;20055;-77
2022/01/23 01:40:36;;;;;;;16.48;14.23;;;;;;;18.48;37.00;102340.38;5111652;28;20043;-76
2022/01/23 01:43:04;;;;;;;16.30;14.57;;;;;;;18.48;36.91;102335.03;5111387;28;20062;-76
2022/01/23 01:45:35;;;;;;;18.42;14.63;;;;;;;18.50;36.79;102333.09;5112043;28;20059;-76
2022/01/23 01:48:22;;;;;;;17.60;14.95;;;;;;;18.51;36.66;102334.81;5111453;28;20047;-77
2022/01/23 01:50:55;;;;;;;16.98;13.57;;;;;;;18.52;36.66;102326.72;5111451;28;20058;-77
2022/01/23 01:53:24;;;;;;;16.10;13.75;;;;;;;18.52;36.63;102332.06;5112594;28;20506;-77
2022/01/23 01:55:55;;;;;;;20.42;15.30;;;;;;;18.54;36.58;102324.78;5117474;28;20054;-77
2022/01/23 02:10:07;;;;;;;25.50;15.18;;;;;;;18.56;36.21;102322.03;4956455;28;20070;-77
2022/01/23 02:18:27;;;;;;;19.65;14.35;;;;;;;18.59;36.13;102316.47;5077755;28;20047;-77
2022/01/23 02:56:47;;;;;;;15.02;13.43;;;;;;;18.64;36.36;102303.66;5013045;28;20054;-77
2022/01/23 02:59:27;;;;;;;15.68;12.82;;;;;;;18.64;36.22;102303.66;5011435;28;20073;-76
2022/01/23 03:05:02;;;;;;;15.55;12.82;;;;;;;18.65;36.00;102302.69;5012337;28;20120;-76
2022/01/23 03:07:54;;;;;;;14.95;13.02;;;;;;;18.65;35.82;102316.09;5010228;28;20053;-76
2022/01/23 03:10:26;;;;;;;14.70;12.23;;;;;;;18.66;36.13;102315.16;5011421;28;20054;-76
2022/01/23 03:31:33;;;;;;;16.40;12.88;;;;;;;18.68;36.22;102326.66;5000057;28;20054;-76
2022/01/23 03:34:02;;;;;;;15.07;12.98;;;;;;;18.68;36.21;102315.06;4992815;28;20505;-77
2022/01/23 03:36:29;;;;;;;16.17;13.63;;;;;;;18.68;36.12;102318.63;4991389;28;20057;-77
2022/01/23 03:38:56;;;;;;;15.63;13.07;;;;;;;18.69;36.24;102309.59;5036428;28;20051;-77
2022/01/23 03:41:24;;;;;;;14.77;13.25;;;;;;;18.68;36.13;102302.53;5115627;28;20048;-77
2022/01/23 03:43:52;;;;;;;15.43;12.30;;;;;;;18.68;36.12;102297.16;5115777;28;20395;-77
2022/01/23 03:51:18;;;;;;;14.35;12.25;;;;;;;18.67;36.19;102314.19;5113528;28;20051;-77
2022/01/23 03:53:49;;;;;;;15.80;13.13;;;;;;;18.67;36.28;102313.31;5113348;28;20062;-76
2022/01/23 03:56:18;;;;;;;14.55;12.68;;;;;;;18.67;36.12;102319.53;5113547;28;20056;-76
2022/01/23 03:58:46;;;;;;;13.40;12.00;;;;;;;18.67;36.21;102311.50;5113369;28;20058;-76
2022/01/23 04:01:20;;;;;;;15.60;12.38;;;;;;;18.67;36.19;102310.66;5113568;28;20494;-76
2022/01/23 04:03:51;;;;;;;14.55;12.43;;;;;;;18.67;36.09;102311.50;5031912;28;20539;-76
2022/01/23 04:06:19;;;;;;;13.55;10.88;;;;;;;18.66;36.19;102309.78;5027511;28;20493;-76
2022/01/23 04:08:48;;;;;;;14.10;12.48;;;;;;;18.65;36.27;102305.38;4993877;28;20056;-77
2022/01/23 04:11:17;;;;;;;14.13;11.98;;;;;;;18.66;36.25;102301.75;5015870;28;20057;-78
2022/01/23 04:14:01;;;;;;;16.65;13.23;;;;;;;18.66;36.24;102312.47;5113280;28;20063;-77
2022/01/23 04:59:54;;;;;;;14.15;12.65;;;;;;;18.55;36.42;102336.38;5010590;28;20402;-77
2022/01/23 05:03:07;;;;;;;17.85;12.20;;;;;;;18.54;36.17;102337.34;5009796;28;20132;-77
2022/01/23 05:05:40;;;;;;;13.75;11.60;;;;;;;18.55;36.21;102339.06;5068437;28;20060;-77
2022/01/23 05:08:38;;;;;;;15.63;12.45;;;;;;;18.56;36.10;102353.34;5053585;28;20060;-77
2022/01/23 05:11:32;;;;;;;14.73;11.85;;;;;;;18.55;36.08;102349.78;5068088;28;20496;-77
2022/01/23 05:14:03;;;;;;;13.98;12.18;;;;;;;18.57;36.16;102355.06;5055494;28;20503;-77
2022/01/23 05:16:32;;;;;;;13.98;11.48;;;;;;;18.57;36.13;102347.88;5053941;28;20075;-77
2022/01/23 05:19:01;;;;;;;15.18;11.95;;;;;;;18.57;36.19;102349.72;5069933;28;20048;-76
2022/01/23 05:24:01;;;;;;;12.57;11.27;;;;;;;18.58;36.14;102346.06;5070625;28;20060;-76
2022/01/23 05:26:29;;;;;;;13.02;10.90;;;;;;;18.58;36.17;102351.44;5070983;28;20044;-76
2022/01/23 05:28:56;;;;;;;14.02;11.75;;;;;;;18.58;36.24;102351.44;5053715;28;20147;-76
2022/01/23 05:31:23;;;;;;;14.38;12.20;;;;;;;18.59;36.12;102353.16;5030781;28;20077;-76
2022/01/23 05:33:51;;;;;;;13.18;11.75;;;;;;;18.58;36.26;102344.25;4988708;28;20524;-76
2022/01/23 05:36:20;;;;;;;13.43;11.18;;;;;;;18.58;36.10;102354.13;4988967;28;20066;-75
2022/01/23 05:38:49;;;;;;;13.98;12.10;;;;;;;18.57;36.34;102365.81;4975733;28;20493;-76
2022/01/23 05:41:18;;;;;;;14.38;12.23;;;;;;;18.56;36.43;102367.63;5076680;28;20228;-77
2022/01/23 05:43:46;;;;;;;16.38;12.15;;;;;;;18.56;36.41;102370.31;5095157;28;20055;-76
2022/01/23 05:46:13;;;;;;;13.73;11.57;;;;;;;18.56;36.45;102367.63;5111783;28;20051;-76
2022/01/23 05:49:10;;;;;;;12.27;10.98;;;;;;;18.56;36.31;102385.53;5070575;28;20044;-76
2022/01/23 05:52:10;;;;;;;15.82;11.80;;;;;;;18.55;36.44;102384.66;4972123;28;20054;-76
2022/01/23 05:54:56;;;;;;;14.40;11.82;;;;;;;18.56;36.38;102380.16;4971283;28;20058;-76
2022/01/23 05:57:45;;;;;;;15.93;12.82;;;;;;;18.54;36.26;102391.84;4971620;28;20070;-76
2022/01/23 06:00:20;;;;;;;15.57;12.65;;;;;;;18.54;36.40;102385.59;4971521;28;20364;-76
2022/01/23 06:03:00;;;;;;;13.98;11.85;;;;;;;18.55;36.13;102400.75;4971632;28;20107;-78
2022/01/23 06:05:37;;;;;;;16.67;13.38;;;;;;;18.54;36.28;102402.56;4970122;28;20043;-78
2022/01/23 06:08:09;;;;;;;16.45;12.35;;;;;;;18.54;36.38;102404.38;4969944;28;20047;-78
2022/01/23 06:10:53;;;;;;;16.58;13.25;;;;;;;18.53;36.48;102406.19;4971706;28;20066;-78
2022/01/23 06:13:25;;;;;;;16.60;13.02;;;;;;;18.53;36.48;102408.03;4972411;28;20430;-77
2022/01/23 06:15:54;;;;;;;16.35;13.27;;;;;;;18.53;36.44;102408.03;4974569;28;20058;-77
2022/01/23 06:18:22;;;;;;;16.15;12.90;;;;;;;18.52;36.48;102414.34;4990897;28;20147;-77
2022/01/23 06:21:08;;;;;;;16.70;13.57;;;;;;;18.52;36.62;102414.34;4995316;28;20096;-77
2022/01/23 06:24:05;;;;;;;16.45;13.15;;;;;;;18.52;36.75;102430.44;4997338;28;20178;-76
2022/01/23 06:27:05;;;;;;;20.23;14.48;;;;;;;18.51;36.48;102428.69;4901633;28;20066;-78
2022/01/23 06:29:38;;;;;;;18.83;13.70;;;;;;;18.50;36.54;102429.66;4933179;29;20446;-77
2022/01/23 06:32:06;;;;;;;19.45;14.27;;;;;;;18.47;36.50;102430.72;4947518;28;20055;-76
2022/01/23 06:34:33;;;;;;;17.90;13.38;;;;;;;18.47;36.71;102445.91;4952125;28;20062;-77
2022/01/23 06:37:03;;;;;;;17.67;13.65;;;;;;;18.46;36.82;102444.19;4968620;28;20058;-77
2022/01/23 06:39:31;;;;;;;16.65;13.90;;;;;;;18.45;36.77;102448.69;4952319;28;20058;-77
2022/01/23 06:42:00;;;;;;;20.20;15.07;;;;;;;18.43;37.01;102455.06;4954758;28;20426;-77
2022/01/23 06:44:46;;;;;;;17.92;14.10;;;;;;;18.44;36.78;102467.56;4978177;28;20054;-76
2022/01/23 06:47:15;;;;;;;18.45;14.85;;;;;;;18.43;36.94;102473.84;4955667;28;20054;-77
2022/01/23 06:49:43;;;;;;;18.80;14.50;;;;;;;18.43;36.73;102476.53;4971397;28;20422;-77
2022/01/23 06:52:13;;;;;;;18.23;14.50;;;;;;;18.42;36.83;102485.53;4971711;28;20430;-77
2022/01/23 06:54:45;;;;;;;17.35;14.15;;;;;;;18.40;36.68;102491.00;4971316;28;20480;-76
2022/01/23 06:57:13;;;;;;;16.92;14.70;;;;;;;18.40;36.71;102484.78;4955031;28;20054;-77
2022/01/23 06:59:42;;;;;;;18.40;13.52;;;;;;;18.40;36.72;102482.09;4971413;28;20051;-77
2022/01/23 07:02:35;;;;;;;16.27;14.27;;;;;;;18.41;36.80;102476.63;4914573;28;20071;-77
2022/01/23 07:05:36;;;;;;;16.70;13.85;;;;;;;18.41;36.61;102487.34;4914207;28;20136;-76
2022/01/23 07:08:11;;;;;;;17.05;14.10;;;;;;;18.43;36.68;102497.97;4899157;28;20440;-76
2022/01/23 07:10:46;;;;;;;17.75;14.45;;;;;;;18.43;36.45;102500.66;4898008;29;20075;-76
2022/01/23 07:13:36;;;;;;;17.90;14.85;;;;;;;18.44;36.58;102507.78;4911979;28;20159;-77
2022/01/23 07:16:24;;;;;;;15.85;13.27;;;;;;;18.41;36.81;102500.75;4914149;28;20056;-76
2022/01/23 07:19:20;;;;;;;14.90;13.30;;;;;;;18.43;36.43;102503.34;4898022;29;20052;-77
2022/01/23 07:21:52;;;;;;;16.17;13.82;;;;;;;18.43;36.48;102503.34;4899628;28;20106;-77
2022/01/23 07:24:20;;;;;;;15.75;13.73;;;;;;;18.42;36.57;102504.31;4898507;28;20064;-77
2022/01/23 07:26:47;;;;;;;16.13;13.18;;;;;;;18.42;36.64;102510.53;4897566;28;20089;-76
2022/01/23 07:29:18;;;;;;;15.10;13.50;;;;;;;18.43;36.52;102519.44;4897711;28;20052;-77
2022/01/23 07:32:08;;;;;;;15.85;13.57;;;;;;;18.43;36.56;102522.13;4913735;28;20052;-77
2022/01/23 07:34:33;;;;;;;15.10;13.50;;;;;;;18.42;36.46;102523.94;4898219;28;20056;-77
2022/01/23 07:37:03;;;;;;;14.95;13.32;;;;;;;18.42;36.49;102523.06;4914786;28;20053;-77
2022/01/23 07:39:56;;;;;;;;;;;;;;;18.43;36.42;102514.06;4984377;28;20062;-77
2022/01/23 07:42:28;;;;;;;13.75;12.27;;;;;;;18.41;36.49;102499.91;5114222;28;19943;-77
2022/01/23 07:45:03;;;;;;;15.55;13.07;;;;;;;18.40;36.45;102509.75;5122121;28;20039;-77
2022/01/23 07:48:02;;;;;;;13.40;11.98;;;;;;;18.41;36.40;102506.13;5113590;28;20487;-77
2022/01/23 07:50:49;;;;;;;13.32;11.93;;;;;;;18.40;36.50;102508.91;5122433;28;20494;-77
2022/01/23 07:53:31;;;;;;;14.32;12.73;;;;;;;18.40;36.47;102516.94;5113644;28;20376;-77
2022/01/23 07:56:24;;;;;;;15.82;12.75;;;;;;;18.38;36.47;102521.50;5072680;28;20164;-77
2022/01/23 07:59:10;;;;;;;15.75;13.77;;;;;;;18.38;36.57;102519.69;5079289;28;20067;-77
2022/01/23 08:01:43;;;;;;;14.50;12.88;;;;;;;18.38;36.62;102521.50;5073992;28;20052;-77
2022/01/23 08:04:29;;;;;;;14.38;12.88;;;;;;;18.37;36.58;102526.00;5078968;28;20053;-77
2022/01/23 08:07:12;;;;;;;14.48;12.40;;;;;;;18.37;36.42;102528.69;5014025;28;20073;-77
2022/01/23 08:10:09;;;;;;;14.68;13.05;;;;;;;18.37;36.60;102527.84;4959372;28;20053;-77
2022/01/23 08:12:37;;;;;;;15.23;13.65;;;;;;;18.36;36.70;102528.78;5005662;28;20063;-77
2022/01/23 08:15:05;;;;;;;14.90;13.27;;;;;;;18.37;36.37;102542.09;5071790;28;20404;-77
2022/01/23 08:17:32;;;;;;;14.90;13.40;;;;;;;18.36;36.38;102529.66;5071846;28;20071;-77
2022/01/23 08:20:02;;;;;;;14.52;12.98;;;;;;;18.36;36.52;102524.28;5054921;28;20091;-77
2022/01/23 08:22:30;;;;;;;12.82;11.52;;;;;;;18.36;36.51;102523.44;5055129;28;20044;-77
2022/01/23 08:24:58;;;;;;;15.00;13.00;;;;;;;18.36;36.38;102518.06;5071740;28;20052;-77
2022/01/23 08:27:25;;;;;;;14.25;11.93;;;;;;;18.35;36.34;102510.94;5072270;28;20056;-76
2022/01/23 08:29:59;;;;;;;14.82;13.15;;;;;;;18.34;36.37;102511.91;5071768;28;20040;-76
2022/01/23 08:32:27;;;;;;;14.20;12.70;;;;;;;18.35;36.50;102516.31;4980354;28;20050;-76
2022/01/23 08:34:54;;;;;;;14.25;12.68;;;;;;;18.35;36.50;102516.31;4991961;28;20051;-76
2022/01/23 08:37:22;;;;;;;14.07;12.68;;;;;;;18.34;36.50;102519.94;4990020;28;20403;-76
2022/01/23 08:39:50;;;;;;;14.23;12.73;;;;;;;18.32;36.53;102517.38;4991684;28;20378;-76
2022/01/23 08:42:17;;;;;;;22.92;12.85;;;;;;;18.32;36.56;102524.53;4992017;28;20042;-77
2022/01/23 08:44:47;;;;;;;13.63;12.23;;;;;;;18.32;36.59;102524.53;4991757;28;20050;-77
2022/01/23 08:47:15;;;;;;;15.90;13.00;;;;;;;18.33;36.39;102523.59;4992034;28;20490;-77
2022/01/23 08:49:45;;;;;;;13.27;11.88;;;;;;;18.34;36.40;102530.66;4992388;28;20057;-77
2022/01/23 08:52:17;;;;;;;15.48;13.02;;;;;;;18.34;36.44;102530.66;4991633;28;20494;-76
2022/01/23 08:54:49;;;;;;;13.73;11.75;;;;;;;18.35;36.33;102529.72;4991299;28;20079;-76
2022/01/23 08:57:20;;;;;;;14.85;12.65;;;;;;;18.36;36.48;102528.78;4991163;28;20062;-76
2022/01/23 08:59:48;;;;;;;13.43;11.75;;;;;;;18.36;36.48;102523.44;4991581;28;20046;-76
2022/01/23 09:02:17;;;;;;;13.45;12.05;;;;;;;18.35;36.50;102527.94;4991668;28;20053;-76
2022/01/23 09:04:45;;;;;;;12.65;11.35;;;;;;;18.37;36.48;102534.06;4973077;28;20050;-75
2022/01/23 09:07:13;;;;;;;13.38;11.98;;;;;;;18.37;36.42;102526.00;4992744;28;20053;-77
2022/01/23 09:09:41;;;;;;;13.35;11.82;;;;;;;18.37;36.54;102530.50;5010263;28;20038;-76
2022/01/23 09:12:41;;;;;;;13.57;12.18;;;;;;;18.33;36.82;102534.31;5010885;28;20046;-75
2022/01/23 09:15:09;;;;;;;13.80;12.40;;;;;;;18.31;36.83;102520.09;5010809;28;20056;-76
2022/01/23 09:17:37;;;;;;;13.65;11.95;;;;;;;18.31;36.84;102530.84;5010605;28;20046;-75
2022/01/23 09:20:04;;;;;;;13.82;12.43;;;;;;;18.31;36.89;102544.25;5010653;28;20057;-75
2022/01/23 09:22:32;;;;;;;12.85;11.38;;;;;;;18.27;37.31;102544.44;5010916;28;20053;-82
2022/01/23 09:25:00;;;;;;;14.50;12.02;;;;;;;18.24;37.98;102539.22;5010589;28;20050;-76
2022/01/23 09:27:29;;;;;;;14.73;11.88;;;;;;;18.23;38.29;102542.88;5010777;28;20053;-76
2022/01/23 09:30:05;;;;;;;13.90;11.75;;;;;;;18.21;38.07;102543.88;5010635;28;20069;-76
2022/01/23 09:32:33;;;;;;;12.40;11.07;;;;;;;18.18;38.27;102550.25;4991205;28;20050;-76
2022/01/23 09:35:01;;;;;;;13.70;12.15;;;;;;;18.17;37.91;102559.25;4989620;28;20046;-77
2022/01/23 09:37:28;;;;;;;13.20;11.65;;;;;;;18.17;37.73;102561.09;4989260;28;20158;-77
2022/01/23 09:39:55;;;;;;;12.95;11.55;;;;;;;18.16;38.05;102570.94;4990979;28;20043;-76
2022/01/23 09:42:55;;;;;;;14.90;12.88;;;;;;;18.15;37.84;102585.31;5099832;28;20040;-76
2022/01/23 09:45:24;;;;;;;13.40;11.43;;;;;;;18.13;37.98;102587.19;5129147;27;20444;-77
2022/01/23 09:47:58;;;;;;;13.48;11.98;;;;;;;18.13;37.84;102584.50;5113606;28;20059;-77
2022/01/23 09:50:26;;;;;;;12.63;11.32;;;;;;;18.13;37.75;102594.34;5111804;28;20055;-77
2022/01/23 09:52:55;;;;;;;13.05;11.65;;;;;;;18.16;37.72;102608.47;5111876;28;20044;-78
2022/01/23 09:55:26;;;;;;;13.05;11.75;;;;;;;18.17;38.15;102598.59;5111223;28;20047;-76
2022/01/23 09:57:54;;;;;;;13.82;12.30;;;;;;;18.16;37.76;102591.53;5112449;28;20414;-76
2022/01/23 10:00:27;;;;;;;13.95;11.57;;;;;;;18.16;38.14;102591.53;5112698;28;20036;-77
2022/01/23 10:02:56;;;;;;;13.57;12.20;;;;;;;18.13;37.99;102602.41;5111694;28;20039;-76
2022/01/23 10:05:27;;;;;;;15.55;13.05;;;;;;;18.11;37.74;102594.44;5113354;28;20047;-75
2022/01/23 10:07:55;;;;;;;16.70;14.20;;;;;;;18.07;36.99;102592.00;5112863;28;20055;-76
2022/01/23 10:10:27;;;;;;;18.45;15.93;;;;;;;18.04;37.17;102593.91;4984463;28;20072;-77
2022/01/23 10:12:57;;;;;;;17.58;15.75;;;;;;;18.03;37.19;102596.66;5028966;28;20040;-78
2022/01/23 10:15:27;;;;;;;18.38;15.88;;;;;;;18.02;37.04;102601.13;5096660;28;20056;-78
2022/01/23 10:17:55;;;;;;;19.30;16.02;;;;;;;18.04;37.07;102598.41;5117057;28;20047;-78
2022/01/23 10:20:23;;;;;;;20.63;18.15;;;;;;;18.04;37.37;102603.75;5115591;28;20101;-80
2022/01/23 10:22:52;;;;;;;21.20;16.63;;;;;;;18.04;37.42;102609.13;5115999;28;20043;-79
2022/01/23 10:25:26;;;;;;;22.60;17.95;;;;;;;18.04;38.51;102601.06;5116965;28;20487;-78
2022/01/23 10:28:00;;;;;;;21.65;17.42;;;;;;;18.06;38.23;102609.88;5117550;28;20052;-81
2022/01/23 10:30:41;;;;;;;23.75;18.35;;;;;;;18.06;38.15;102607.22;5116262;28;20043;-85
2022/01/23 10:33:15;;;;;;;21.00;18.48;;;;;;;18.06;38.55;102595.63;5115033;28;20048;-78
2022/01/23 10:36:19;;;;;;;22.35;18.88;;;;;;;18.06;38.37;102599.16;5114731;28;20044;-80
2022/01/23 10:38:57;;;;;;;22.65;18.95;;;;;;;18.05;38.27;102594.75;5013257;28;20061;-81
2022/01/23 10:50:03;;;;;;;22.73;19.83;;;;;;;18.07;38.20;102554.47;5011741;28;20058;-78
2022/01/23 10:52:38;;;;;;;20.98;18.05;;;;;;;18.09;38.22;102557.94;5012700;28;20493;-78
2022/01/23 10:55:24;;;;;;;21.10;18.95;;;;;;;18.09;38.30;102552.59;5012669;28;20058;-78
2022/01/23 10:57:54;;;;;;;20.33;18.08;;;;;;;18.07;38.19;102546.41;5011448;28;20050;-78
2022/01/23 11:00:30;;;;;;;22.52;18.05;;;;;;;18.08;37.82;102557.09;5011498;28;20042;-78
2022/01/23 11:03:00;;;;;;;19.88;17.85;;;;;;;18.08;38.06;102554.41;5012866;28;20049;-78
2022/01/23 11:05:36;;;;;;;22.02;18.38;;;;;;;18.10;38.00;102560.53;5012585;28;20485;-80
2022/01/23 11:08:35;;;;;;;20.55;17.77;;;;;;;18.11;38.08;102559.59;5012634;28;20050;-79
2022/01/23 11:11:06;;;;;;;21.90;18.23;;;;;;;18.12;37.97;102569.38;4994589;28;20469;-78
2022/01/23 11:19:43;;;;;;;19.63;17.50;;;;;;;18.12;37.96;102563.16;4994443;28;20058;-78
2022/01/23 11:22:22;;;;;;;21.08;17.70;;;;;;;18.12;37.99;102552.44;4992839;28;20053;-77
2022/01/23 11:24:50;;;;;;;20.98;18.13;;;;;;;18.11;37.98;102551.56;4992663;28;20046;-77
2022/01/23 11:27:20;;;;;;;19.63;17.02;;;;;;;18.13;37.88;102560.38;4991880;28;20043;-77
2022/01/23 11:29:57;;;;;;;20.15;17.95;;;;;;;18.14;37.85;102567.47;4993307;28;20083;-78
2022/01/23 11:32:29;;;;;;;22.17;18.38;;;;;;;18.13;38.08;102571.09;4993026;28;20387;-77
2022/01/23 11:35:05;;;;;;;21.48;18.63;;;;;;;18.13;38.05;102576.47;4992375;28;20053;-77
2022/01/23 11:37:33;;;;;;;22.00;18.70;;;;;;;18.12;37.99;102572.06;4991116;28;20054;-76
2022/01/23 11:40:20;;;;;;;20.75;18.20;;;;;;;18.12;38.00;102576.56;4991448;28;20057;-76
2022/01/23 11:53:59;;;;;;;21.48;19.15;;;;;;;18.07;38.60;102549.09;5012039;28;20053;-74
2022/01/23 11:56:40;;;;;;;20.05;17.95;;;;;;;18.08;38.66;102542.81;5007279;28;20042;-75
2022/01/23 11:59:33;;;;;;;22.90;18.77;;;;;;;18.09;38.91;102542.72;4992341;28;20062;-75
2022/01/23 12:02:13;;;;;;;22.05;19.05;;;;;;;18.09;38.65;102545.41;5003007;28;20524;-76
2022/01/23 12:05:02;;;;;;;24.95;19.02;;;;;;;18.09;38.53;102541.88;5010418;28;20050;-76
2022/01/23 12:07:30;;;;;;;22.08;18.50;;;;;;;18.09;38.24;102542.72;5011742;28;20054;-76
2022/01/23 12:10:16;;;;;;;22.20;18.83;;;;;;;18.11;38.25;102550.66;5011585;28;20042;-76
2022/01/23 12:12:47;;;;;;;26.42;19.75;;;;;;;18.12;38.20;102560.47;5012873;28;20050;-75
2022/01/23 12:18:29;;;;;;;22.58;18.98;;;;;;;18.11;38.23;102556.03;5010490;28;20157;-77
2022/01/23 12:20:57;;;;;;;23.88;19.80;;;;;;;18.10;38.13;102543.59;5010443;28;20405;-76
2022/01/23 12:23:24;;;;;;;22.17;18.02;;;;;;;18.11;38.15;102546.22;5011260;28;20057;-76
2022/01/23 12:25:55;;;;;;;21.38;19.00;;;;;;;18.11;38.11;102546.22;5009694;28;20405;-76
2022/01/23 12:28:28;;;;;;;22.88;19.05;;;;;;;18.11;38.34;102546.22;5011125;28;20057;-76
2022/01/23 12:30:56;;;;;;;21.27;18.63;;;;;;;18.13;38.19;102532.72;5010080;28;20046;-77
2022/01/23 12:33:51;;;;;;;22.30;18.75;;;;;;;18.13;38.25;102538.94;5010978;28;20050;-76
2022/01/23 12:36:40;;;;;;;20.17;17.65;;;;;;;18.14;38.48;102531.75;5011166;28;20046;-76
2022/01/23 12:39:07;;;;;;;21.92;18.60;;;;;;;18.16;38.48;102545.97;5010231;28;20060;-77
2022/01/23 12:41:36;;;;;;;21.63;17.98;;;;;;;18.17;38.54;102542.31;5011060;28;20497;-76
2022/01/23 12:44:28;;;;;;;21.50;18.10;;;;;;;18.15;38.77;102531.69;5011154;28;20046;-76
2022/01/23 12:47:02;;;;;;;22.23;19.13;;;;;;;18.14;38.88;102516.53;5010970;28;20042;-77
2022/01/23 12:49:34;;;;;;;22.95;19.02;;;;;;;18.15;38.96;102510.25;5010427;28;20053;-76
2022/01/23 12:52:05;;;;;;;22.95;19.13;;;;;;;18.14;39.20;102507.63;5010759;28;20397;-76
2022/01/23 12:54:59;;;;;;;24.48;20.25;;;;;;;18.13;39.78;102504.09;5027366;28;20050;-76
2022/01/23 12:57:35;;;;;;;25.33;20.42;;;;;;;18.13;40.11;102493.38;5051493;28;20065;-76
2022/01/23 13:00:08;;;;;;;23.10;20.13;;;;;;;18.12;40.63;102488.97;5034341;28;20373;-76
2022/01/23 13:02:43;;;;;;;25.33;20.65;;;;;;;18.11;41.81;102489.91;5018270;28;20075;-76
2022/01/23 13:05:11;;;;;;;25.48;21.08;;;;;;;18.10;41.86;102504.25;5051276;28;20061;-76
2022/01/23 13:15:46;;;;;;;23.70;20.85;;;;;;;18.09;44.20;102504.34;5031372;28;20460;-76
2022/01/23 13:32:40;;;;;;;23.67;19.27;;;;;;;18.13;42.16;102488.00;5047581;28;20056;-78
2022/01/23 13:35:12;;;;;;;21.00;18.38;;;;;;;18.13;42.00;102481.78;5021578;28;20057;-77
2022/01/23 13:37:43;;;;;;;22.83;19.23;;;;;;;18.13;42.27;102482.66;5010538;28;20058;-77
2022/01/23 13:40:14;;;;;;;21.20;18.95;;;;;;;18.12;42.39;102483.59;5011425;28;20049;-79
2022/01/23 13:59:40;;;;;;;25.20;19.73;;;;;;;18.14;42.02;102452.19;5113572;28;20408;-76
2022/01/23 14:02:18;;;;;;;23.48;20.05;;;;;;;18.15;42.04;102448.59;5113715;28;20047;-76
2022/01/23 14:04:53;;;;;;;21.45;18.75;;;;;;;18.16;41.94;102441.41;5113289;28;20051;-76
2022/01/23 14:07:27;;;;;;;20.83;18.08;;;;;;;18.15;41.91;102440.56;5111443;28;20122;-76
2022/01/23 14:09:58;;;;;;;21.67;18.27;;;;;;;18.14;41.87;102433.44;5113516;28;20353;-76
2022/01/23 14:12:31;;;;;;;23.67;19.17;;;;;;;18.14;41.81;102433.44;5095180;28;20049;-76
2022/01/23 14:15:24;;;;;;;22.55;18.27;;;;;;;18.14;41.82;102435.25;5007198;28;20054;-76
2022/01/23 14:18:05;;;;;;;20.77;18.67;;;;;;;18.12;41.70;102427.31;4990515;28;20043;-77
2022/01/23 14:20:36;;;;;;;21.80;18.30;;;;;;;18.11;41.77;102422.91;4989208;28;20417;-77
2022/01/23 14:23:23;;;;;;;21.65;18.88;;;;;;;18.12;41.58;102424.63;4990922;28;20398;-76
2022/01/23 14:25:59;;;;;;;21.73;18.05;;;;;;;18.13;41.60;102412.97;4990624;28;20054;-77
2022/01/23 14:28:36;;;;;;;20.92;18.65;;;;;;;18.14;41.72;102409.31;4990363;28;20050;-77
2022/01/23 14:31:20;;;;;;;20.13;16.83;;;;;;;18.12;43.00;102413.91;4996820;28;20053;-77
2022/01/23 14:33:52;;;;;;;23.05;19.52;;;;;;;18.11;43.81;102412.19;5010166;28;20375;-77
2022/01/23 14:36:32;;;;;;;61.72;50.90;;;;;;;17.89;38.15;102407.13;5009530;28;20046;-77
2022/01/23 14:39:04;;;;;;;63.22;53.22;;;;;;;17.53;37.80;102412.63;5008530;28;20050;-77
2022/01/23 14:41:34;;;;;;;59.50;50.17;;;;;;;17.30;42.17;102403.16;5008985;28;20076;-76
2022/01/23 14:44:14;;;;;;;34.08;30.42;;;;;;;17.29;45.11;102407.63;5009834;28;20046;-76
2022/01/23 14:46:44;;;;;;;28.80;23.80;;;;;;;17.37;45.16;102411.72;5009765;28;20053;-77
2022/01/23 14:49:21;;;;;;;27.88;24.90;;;;;;;17.43;44.67;102411.41;5009448;28;20046;-76
2022/01/23 14:51:49;;;;;;;27.42;22.10;;;;;;;17.47;45.49;102411.16;5009685;28;20405;-76
2022/01/23 14:54:18;;;;;;;28.83;24.27;;;;;;;17.52;45.49;102410.91;5009361;28;20042;-75
2022/01/23 14:56:46;;;;;;;26.50;22.80;;;;;;;17.55;45.79;102413.44;5009699;28;20046;-75
2022/01/23 14:59:15;;;;;;;29.20;23.00;;;;;;;17.60;47.25;102410.50;5008999;28;20595;-76
2022/01/23 15:01:44;;;;;;;28.10;22.80;;;;;;;17.62;46.85;102413.94;5006192;28;20054;-75
2022/01/23 15:04:15;;;;;;;24.45;21.23;;;;;;;17.63;47.09;102408.53;5012572;28;20053;-76
2022/01/23 15:06:46;;;;;;;26.60;22.30;;;;;;;17.66;46.91;102410.16;5012994;28;20046;-76
2022/01/23 15:09:16;;;;;;;26.33;22.92;;;;;;;17.67;46.53;102404.75;5013508;28;20050;-76
2022/01/23 15:11:44;;;;;;;25.58;22.38;;;;;;;17.69;46.93;102407.31;5012752;28;20053;-77
2022/01/23 15:14:12;;;;;;;24.33;20.55;;;;;;;17.69;46.80;102400.16;5011968;28;20103;-76
2022/01/23 15:16:41;;;;;;;25.73;20.85;;;;;;;17.71;47.13;102400.94;5012008;28;20473;-77
2022/01/23 15:19:09;;;;;;;27.02;21.67;;;;;;;17.72;47.29;102404.50;5012140;28;20042;-77
2022/01/23 15:21:37;;;;;;;24.55;21.08;;;;;;;17.73;47.65;102398.19;5010737;28;20054;-77
2022/01/23 15:24:05;;;;;;;24.85;20.98;;;;;;;17.73;47.89;102412.44;5012426;28;20401;-78
2022/01/23 15:26:35;;;;;;;24.55;20.25;;;;;;;17.74;48.15;102413.28;5012083;28;20493;-78